Time;durP1;ratioP1;P1;durP2;ratioP2;P2;SDS_P1;SDS_P2;PMS_P1;PMS_P2;Temp;Humidity;BMP_temperature;BMP_pressure;BME280_temperature;BME280_humidity;BME280_pressure;Samples;Min_cycle;Max_cycle;Signal;HPM_P1;HPM_P2
2022/03/19 00:00:48;;;;;;;17.70;7.70;;;;;;;6.46;nan;104356.25;5071296;28;20040;-52
2022/03/19 00:03:13;;;;;;;18.88;7.78;;;;;;;6.00;nan;104281.97;5071149;28;20028;-53
2022/03/19 00:05:39;;;;;;;18.60;7.75;;;;;;;6.46;nan;104368.44;5071130;28;20480;-55
2022/03/19 00:08:04;;;;;;;19.50;8.05;;;;;;;6.06;nan;104298.81;5074171;28;20033;-51
2022/03/19 00:10:30;;;;;;;13.55;7.53;;;;;;;6.38;nan;104365.53;5073525;28;20032;-56
2022/03/19 00:12:58;;;;;;;20.83;7.75;;;;;;;6.38;nan;104367.25;5040322;28;20044;-54
2022/03/19 00:15:24;;;;;;;22.63;7.32;;;;;;;6.23;nan;104354.41;5074692;28;20029;-53
2022/03/19 00:17:49;;;;;;;19.60;7.15;;;;;;;6.35;nan;104369.72;5056965;28;20036;-54
2022/03/19 00:20:14;;;;;;;17.45;7.78;;;;;;;6.35;nan;104369.72;5074501;28;20036;-52
2022/03/19 00:22:40;;;;;;;17.65;7.65;;;;;;;6.29;nan;104366.84;5074397;28;20132;-53
2022/03/19 00:25:07;;;;;;;16.65;7.68;;;;;;;6.26;nan;104370.25;5056751;28;20036;-55
2022/03/19 00:27:32;;;;;;;18.33;7.82;;;;;;;5.82;nan;104295.13;5074645;28;20045;-54
2022/03/19 00:29:59;;;;;;;22.55;7.30;;;;;;;6.25;nan;104371.06;5074469;28;20102;-54
2022/03/19 00:32:24;;;;;;;15.75;7.40;;;;;;;6.20;nan;104376.13;5074548;28;20127;-52
2022/03/19 00:34:50;;;;;;;16.35;6.97;;;;;;;6.18;nan;104374.28;5074353;28;20115;-54
2022/03/19 00:37:15;;;;;;;18.52;7.82;;;;;;;5.76;nan;104305.34;5074055;28;20060;-49
2022/03/19 00:39:40;;;;;;;15.50;7.38;;;;;;;6.03;nan;104364.06;5074114;28;20447;-53
2022/03/19 00:42:06;;;;;;;23.73;7.85;;;;;;;5.96;nan;104366.34;5056313;28;20100;-51
2022/03/19 00:44:31;;;;;;;23.08;8.55;;;;;;;6.01;nan;104384.00;5074113;28;20086;-51
2022/03/19 00:46:56;;;;;;;20.27;7.95;;;;;;;6.00;nan;104386.56;5074150;28;20055;-52
2022/03/19 00:49:22;;;;;;;21.65;8.10;;;;;;;5.59;nan;104304.63;5073914;28;20503;-56
2022/03/19 00:51:47;;;;;;;19.30;7.65;;;;;;;5.89;nan;104356.47;5073739;28;20044;-54
2022/03/19 00:54:15;;;;;;;17.27;7.85;;;;;;;5.65;nan;104302.28;5073955;28;20039;-53
2022/03/19 00:56:42;;;;;;;22.00;8.15;;;;;;;5.53;nan;104285.16;5073991;28;20044;-52
2022/03/19 00:59:07;;;;;;;15.93;7.93;;;;;;;5.98;nan;104381.25;5073803;28;20033;-52
2022/03/19 01:01:34;;;;;;;20.67;7.90;;;;;;;5.55;nan;104309.63;5073773;28;20037;-52
2022/03/19 01:04:00;;;;;;;19.35;7.53;;;;;;;5.44;nan;104296.13;5073761;28;20032;-50
2022/03/19 01:06:25;;;;;;;22.77;8.07;;;;;;;5.29;nan;104278.88;5073596;28;20395;-55
2022/03/19 01:08:51;;;;;;;22.67;9.75;;;;;;;5.75;nan;104373.25;5073934;28;20028;-57
2022/03/19 01:11:17;;;;;;;17.00;8.63;;;;;;;5.76;nan;104383.75;5073787;28;20438;-53
2022/03/19 01:13:42;;;;;;;29.15;9.40;;;;;;;5.30;nan;104298.94;5073697;28;20098;-53
2022/03/19 01:16:07;;;;;;;24.38;9.27;;;;;;;5.68;nan;104380.81;5055847;28;20043;-53
2022/03/19 01:18:33;;;;;;;15.98;8.20;;;;;;;5.47;nan;104339.75;5072267;28;20048;-53
2022/03/19 01:20:59;;;;;;;24.55;9.43;;;;;;;5.61;nan;104376.13;5073333;28;20288;-50
2022/03/19 01:23:24;;;;;;;18.38;9.20;;;;;;;5.55;nan;104385.41;5073501;28;20028;-54
2022/03/19 01:25:49;;;;;;;21.52;9.30;;;;;;;5.44;nan;104361.44;5073382;28;20036;-52
2022/03/19 01:28:15;;;;;;;19.80;9.15;;;;;;;5.40;nan;104356.00;5073039;28;20392;-51
2022/03/19 01:30:41;;;;;;;25.10;9.65;;;;;;;5.40;nan;104372.56;5073045;28;20073;-50
2022/03/19 01:33:06;;;;;;;22.85;9.77;;;;;;;5.39;nan;104362.06;5073031;28;20392;-50
2022/03/19 01:35:32;;;;;;;19.60;9.73;;;;;;;5.10;nan;104324.19;5073316;28;20082;-48
2022/03/19 01:37:58;;;;;;;23.65;9.38;;;;;;;5.03;nan;104302.13;5073188;28;20032;-51
2022/03/19 01:40:24;;;;;;;24.48;9.63;;;;;;;5.25;nan;104345.78;5055371;28;20094;-55
2022/03/19 01:42:51;;;;;;;26.38;9.15;;;;;;;5.26;nan;104347.53;5073026;28;20086;-49
2022/03/19 01:45:19;;;;;;;20.05;8.73;;;;;;;5.24;nan;104351.81;5055115;28;20076;-50
2022/03/19 01:47:47;;;;;;;18.10;9.05;;;;;;;4.93;nan;104293.81;5072750;28;20373;-52
2022/03/19 01:50:13;;;;;;;27.73;9.95;;;;;;;4.92;nan;104312.91;5054668;28;20032;-50
2022/03/19 01:52:39;;;;;;;24.45;8.95;;;;;;;5.24;nan;104353.53;5072785;28;20439;-50
2022/03/19 01:55:05;;;;;;;17.20;8.73;;;;;;;4.95;nan;104303.50;5072589;28;20538;-49
2022/03/19 01:57:34;;;;;;;22.08;9.07;;;;;;;4.97;nan;104291.41;5072492;28;20033;-51
2022/03/19 01:59:59;;;;;;;22.90;9.60;;;;;;;5.09;nan;104317.16;5072612;28;20040;-51
2022/03/19 02:02:26;;;;;;;22.15;8.93;;;;;;;4.86;nan;104273.47;5054520;28;20051;-52
2022/03/19 02:04:52;;;;;;;16.30;8.80;;;;;;;5.22;nan;104336.91;5072419;28;20032;-51
2022/03/19 02:07:18;;;;;;;23.38;8.48;;;;;;;4.84;nan;104265.56;5072686;28;20437;-50
2022/03/19 02:09:43;;;;;;;17.02;8.50;;;;;;;4.82;nan;104266.28;5054920;28;20393;-55
2022/03/19 02:12:09;;;;;;;21.80;8.75;;;;;;;5.22;nan;104334.28;5054555;28;20476;-52
2022/03/19 02:14:39;;;;;;;20.65;8.68;;;;;;;4.93;nan;104280.75;5054837;28;20500;-54
2022/03/19 02:17:05;;;;;;;20.67;9.57;;;;;;;5.24;nan;104335.25;5072445;28;20155;-55
2022/03/19 02:19:31;;;;;;;22.50;7.85;;;;;;;5.25;nan;104343.16;5072480;28;20029;-54
2022/03/19 02:21:57;;;;;;;19.92;7.90;;;;;;;5.00;nan;104278.47;5054518;28;20032;-54
2022/03/19 02:27:06;;;;;;;20.42;8.07;;;;;;;5.29;nan;104324.16;5057174;28;20379;-51
2022/03/19 02:29:32;;;;;;;21.08;7.25;;;;;;;5.05;nan;104283.88;5071702;28;20111;-55
2022/03/19 02:31:59;;;;;;;16.60;7.07;;;;;;;4.79;nan;104245.28;5072231;28;20110;-53
2022/03/19 02:34:25;;;;;;;20.05;6.93;;;;;;;5.23;nan;104318.66;5070747;28;20029;-56
2022/03/19 02:36:50;;;;;;;15.95;7.20;;;;;;;5.11;nan;104311.19;5072296;28;20040;-50
2022/03/19 02:39:17;;;;;;;19.85;8.07;;;;;;;5.20;nan;104320.25;5054408;28;20040;-54
2022/03/19 02:41:47;;;;;;;19.63;6.82;;;;;;;5.18;nan;104314.97;5053951;28;20032;-53
2022/03/19 02:44:13;;;;;;;15.90;6.40;;;;;;;5.17;nan;104317.53;5053784;28;20067;-50
2022/03/19 02:46:51;;;;;;;18.85;7.32;;;;;;;5.07;nan;104304.06;5072062;28;20068;-56
2022/03/19 02:49:17;;;;;;;22.35;7.57;;;;;;;4.72;nan;104238.00;5054232;28;20036;-53
2022/03/19 02:51:45;;;;;;;17.33;6.43;;;;;;;5.10;nan;104312.03;5071837;28;20025;-53
2022/03/19 02:54:12;;;;;;;23.95;7.03;;;;;;;5.09;nan;104306.72;5071825;28;20469;-53
2022/03/19 02:56:40;;;;;;;21.55;6.82;;;;;;;4.67;nan;104231.69;5070406;28;20134;-49
2022/03/19 02:59:10;;;;;;;18.92;6.80;;;;;;;4.97;nan;104294.00;5071921;28;20119;-54
2022/03/19 03:01:35;;;;;;;17.50;6.43;;;;;;;5.06;nan;104294.41;5071792;28;20116;-53
2022/03/19 03:04:01;;;;;;;17.50;7.30;;;;;;;5.01;nan;104308.09;5071768;28;20115;-54
2022/03/19 03:06:28;;;;;;;16.83;6.68;;;;;;;5.00;nan;104295.84;5071711;28;20028;-54
2022/03/19 03:08:54;;;;;;;17.20;6.43;;;;;;;4.61;nan;104234.94;5070585;28;20075;-51
2022/03/19 03:11:19;;;;;;;16.48;6.65;;;;;;;4.96;nan;104302.66;5053592;28;20044;-54
2022/03/19 03:13:44;;;;;;;15.30;6.70;;;;;;;4.75;nan;104272.06;5071886;28;20099;-52
2022/03/19 03:16:10;;;;;;;23.27;6.18;;;;;;;4.63;nan;104243.72;5053821;28;20028;-52
2022/03/19 03:18:36;;;;;;;18.33;7.30;;;;;;;4.86;nan;104291.72;5071536;28;20029;-50
2022/03/19 03:21:02;;;;;;;18.80;5.90;;;;;;;4.93;nan;104299.91;5071623;28;20033;-51
2022/03/19 03:23:27;;;;;;;18.58;6.97;;;;;;;4.91;nan;104282.38;5053552;28;20024;-51
2022/03/19 03:25:53;;;;;;;15.02;6.03;;;;;;;4.49;nan;104231.75;5071418;28;20028;-52
2022/03/19 03:28:18;;;;;;;18.55;6.88;;;;;;;4.68;nan;104255.25;5053496;28;20037;-54
2022/03/19 03:30:43;;;;;;;13.70;6.03;;;;;;;4.84;nan;104302.13;5071462;28;20036;-54
2022/03/19 03:33:09;;;;;;;15.70;6.18;;;;;;;4.67;nan;104269.09;5071492;28;20430;-53
2022/03/19 03:35:34;;;;;;;23.35;7.28;;;;;;;4.81;nan;104291.53;5071402;28;20067;-52
2022/03/19 03:38:00;;;;;;;15.93;6.68;;;;;;;4.68;nan;104278.72;5071338;28;20035;-55
2022/03/19 03:40:25;;;;;;;20.70;7.10;;;;;;;4.75;nan;104298.19;5071185;28;20399;-53
2022/03/19 03:42:51;;;;;;;15.77;6.93;;;;;;;4.75;nan;104299.06;5074369;28;20029;-53
2022/03/19 03:45:16;;;;;;;20.90;7.25;;;;;;;4.73;nan;104286.78;5075222;28;20039;-53
2022/03/19 03:47:42;;;;;;;20.45;7.07;;;;;;;4.72;nan;104288.50;5075153;28;20441;-51
2022/03/19 03:50:07;;;;;;;19.33;6.82;;;;;;;4.73;nan;104292.88;5075023;28;20430;-54
2022/03/19 03:52:33;;;;;;;14.90;6.22;;;;;;;4.33;nan;104219.69;5056770;28;20480;-53
2022/03/19 03:54:58;;;;;;;13.88;6.25;;;;;;;4.66;nan;104284.69;5074609;28;20028;-54
2022/03/19 03:57:23;;;;;;;16.13;7.35;;;;;;;4.71;nan;104291.00;5057094;28;20131;-53
2022/03/19 03:59:50;;;;;;;18.38;6.97;;;;;;;4.64;nan;104275.91;5075229;28;20081;-51
2022/03/19 04:02:16;;;;;;;15.85;6.63;;;;;;;4.62;nan;104281.03;5074888;28;20119;-54
2022/03/19 04:04:41;;;;;;;21.33;7.57;;;;;;;4.52;nan;104256.22;5074759;28;20186;-54
2022/03/19 04:07:06;;;;;;;22.23;7.68;;;;;;;4.22;nan;104220.91;5074700;28;20028;-53
2022/03/19 04:09:31;;;;;;;17.65;6.80;;;;;;;4.58;nan;104281.75;5056823;28;20403;-52
2022/03/19 04:11:57;;;;;;;15.35;6.45;;;;;;;4.19;nan;104210.34;5056475;28;20434;-52
2022/03/19 04:14:22;;;;;;;21.25;8.02;;;;;;;4.47;nan;104272.50;5074529;28;20041;-50
2022/03/19 04:16:47;;;;;;;22.20;7.43;;;;;;;4.04;nan;104198.28;5074769;28;20142;-50
2022/03/19 04:19:13;;;;;;;18.90;6.78;;;;;;;4.09;nan;104213.31;5074829;28;20032;-55
2022/03/19 04:21:38;;;;;;;14.32;6.70;;;;;;;4.10;nan;104215.13;5056554;28;20502;-51
2022/03/19 04:24:04;;;;;;;16.48;6.85;;;;;;;4.49;nan;104292.63;5074332;28;20036;-53
2022/03/19 04:26:29;;;;;;;15.93;7.50;;;;;;;4.29;nan;104254.25;5074297;28;20372;-52
2022/03/19 04:28:54;;;;;;;22.40;8.63;;;;;;;3.97;nan;104199.69;5074477;28;20028;-51
2022/03/19 04:31:20;;;;;;;18.50;7.20;;;;;;;4.45;nan;104287.19;5074203;28;20080;-54
2022/03/19 04:33:45;;;;;;;20.35;7.43;;;;;;;4.26;nan;104243.69;5074502;28;20059;-54
2022/03/19 04:38:54;;;;;;;17.30;7.40;;;;;;;4.44;nan;104282.78;5074406;28;20098;-54
2022/03/19 04:41:19;;;;;;;18.20;7.05;;;;;;;4.43;nan;104284.53;5056607;28;20040;-54
2022/03/19 04:43:44;;;;;;;23.92;7.60;;;;;;;4.41;nan;104285.25;5074201;28;20081;-51
2022/03/19 04:46:10;;;;;;;14.07;7.22;;;;;;;4.40;nan;104279.16;5074124;28;20029;-50
2022/03/19 04:48:35;;;;;;;24.98;8.18;;;;;;;4.37;nan;104276.41;5073856;28;20123;-50
2022/03/19 04:51:01;;;;;;;19.23;8.30;;;;;;;4.39;nan;104284.28;5056313;28;20052;-54
2022/03/19 04:53:26;;;;;;;23.63;7.80;;;;;;;3.93;nan;104193.47;5073660;28;20067;-55
2022/03/19 04:55:51;;;;;;;19.80;7.45;;;;;;;4.31;nan;104265.69;5074113;28;20044;-55
2022/03/19 04:58:17;;;;;;;17.85;7.15;;;;;;;4.28;nan;104270.75;5072932;28;20033;-52
2022/03/19 05:00:42;;;;;;;19.52;7.38;;;;;;;4.31;nan;104281.34;5055869;28;20035;-54
2022/03/19 05:03:09;;;;;;;16.85;7.70;;;;;;;3.90;nan;104187.19;5073613;28;20039;-57
2022/03/19 05:05:35;;;;;;;19.10;7.45;;;;;;;4.35;nan;104272.81;5073782;28;20041;-52
2022/03/19 05:08:00;;;;;;;19.08;6.72;;;;;;;3.87;nan;104190.56;5073515;28;20032;-54
2022/03/19 05:13:10;;;;;;;21.83;8.20;;;;;;;4.29;nan;104274.25;5073825;28;20170;-54
2022/03/19 05:15:36;;;;;;;21.55;7.45;;;;;;;4.24;nan;104262.69;5073638;28;20101;-54
2022/03/19 05:18:01;;;;;;;16.73;7.72;;;;;;;4.21;nan;104267.75;5073350;28;20052;-49
2022/03/19 05:20:27;;;;;;;21.13;7.68;;;;;;;4.09;nan;104249.81;5073374;28;20036;-53
2022/03/19 05:22:52;;;;;;;21.27;7.60;;;;;;;4.18;nan;104268.50;5073820;28;20441;-48
2022/03/19 05:25:18;;;;;;;18.67;8.40;;;;;;;3.80;nan;104197.97;5073512;28;20541;-52
2022/03/19 05:27:43;;;;;;;18.20;8.00;;;;;;;4.16;nan;104256.22;5073540;28;20038;-53
2022/03/19 05:30:08;;;;;;;23.25;9.57;;;;;;;3.79;nan;104188.41;5073388;28;20052;-54
2022/03/19 05:32:35;;;;;;;21.25;8.68;;;;;;;4.11;nan;104244.69;5073469;28;20054;-54
2022/03/19 05:35:02;;;;;;;22.08;8.18;;;;;;;4.00;nan;104235.47;5055169;28;20028;-53
2022/03/19 05:37:27;;;;;;;19.35;8.38;;;;;;;4.01;nan;104242.44;5055474;28;20029;-52
2022/03/19 05:39:55;;;;;;;22.08;8.90;;;;;;;4.17;nan;104268.44;5055477;28;20539;-50
2022/03/19 05:42:21;;;;;;;19.23;8.27;;;;;;;4.16;nan;104269.25;5072104;28;20100;-52
2022/03/19 05:44:46;;;;;;;21.77;8.27;;;;;;;4.01;nan;104245.03;5072981;28;20047;-51
2022/03/19 05:47:12;;;;;;;17.67;9.25;;;;;;;4.15;nan;104270.97;5072904;28;20040;-55
2022/03/19 05:49:37;;;;;;;15.90;8.52;;;;;;;3.70;nan;104194.06;5072796;28;20392;-51
2022/03/19 05:52:03;;;;;;;23.10;9.32;;;;;;;4.08;nan;104266.28;5055019;28;20078;-52
2022/03/19 05:54:29;;;;;;;26.17;9.63;;;;;;;4.13;nan;104269.09;5054969;28;20078;-53
2022/03/19 05:56:54;;;;;;;18.35;8.80;;;;;;;4.05;nan;104263.53;5072691;28;20044;-53
2022/03/19 05:59:20;;;;;;;20.42;9.55;;;;;;;4.11;nan;104268.16;5072453;28;20580;-50
2022/03/19 06:01:46;;;;;;;17.67;8.98;;;;;;;4.00;nan;104249.38;5054706;28;20036;-53
2022/03/19 06:04:11;;;;;;;22.40;10.40;;;;;;;4.14;nan;104266.59;5071973;28;20494;-56
2022/03/19 06:06:37;;;;;;;20.50;9.43;;;;;;;4.03;nan;104241.69;5072701;28;20033;-54
2022/03/19 06:09:03;;;;;;;14.18;8.35;;;;;;;4.15;nan;104281.41;5072541;28;20081;-51
2022/03/19 06:11:28;;;;;;;20.42;9.40;;;;;;;4.15;nan;104267.47;5071005;28;20032;-50
2022/03/19 06:13:54;;;;;;;22.92;9.38;;;;;;;3.81;nan;104208.50;5053981;28;20120;-53
2022/03/19 06:16:19;;;;;;;20.33;10.02;;;;;;;4.09;nan;104248.91;5059589;28;20039;-52
2022/03/19 06:18:50;;;;;;;21.00;8.57;;;;;;;3.77;nan;104195.22;5053019;28;20033;-51
2022/03/19 06:21:16;;;;;;;20.98;9.23;;;;;;;3.81;nan;104195.47;5052406;28;20516;-54
2022/03/19 06:23:42;;;;;;;16.95;9.45;;;;;;;4.32;nan;104275.28;5052019;28;20119;-52
2022/03/19 06:26:07;;;;;;;27.98;9.18;;;;;;;4.23;nan;104256.56;5052144;28;20132;-53
2022/03/19 06:28:32;;;;;;;18.83;9.75;;;;;;;4.37;nan;104271.19;5068637;28;20036;-54
2022/03/19 06:30:58;;;;;;;18.83;8.63;;;;;;;4.39;nan;104285.19;5070514;28;20082;-49
2022/03/19 06:33:23;;;;;;;22.05;9.27;;;;;;;4.37;nan;104267.69;5071847;28;20578;-53
2022/03/19 06:38:32;;;;;;;15.77;9.15;;;;;;;4.55;nan;104252.91;5054056;28;20059;-52
2022/03/19 06:40:59;;;;;;;16.27;8.43;;;;;;;4.37;nan;104226.84;5051771;28;20041;-54
2022/03/19 06:43:25;;;;;;;13.65;7.70;;;;;;;4.57;nan;104219.94;5034004;28;20040;-50
2022/03/19 06:45:50;;;;;;;17.33;8.75;;;;;;;4.91;nan;104248.44;5053312;28;20085;-52
2022/03/19 06:48:16;;;;;;;22.50;8.65;;;;;;;5.02;nan;104263.75;5071904;28;20048;-49
2022/03/19 06:50:41;;;;;;;13.73;7.97;;;;;;;4.82;nan;104219.31;5053869;28;20037;-53
2022/03/19 06:53:06;;;;;;;13.25;7.43;;;;;;;5.24;nan;104283.00;5071776;28;20109;-52
2022/03/19 06:55:32;;;;;;;14.32;8.02;;;;;;;4.87;nan;104186.50;5070596;28;20086;-51
2022/03/19 06:57:58;;;;;;;19.48;8.68;;;;;;;5.41;nan;104289.84;5048718;28;20040;-52
2022/03/19 07:00:23;;;;;;;17.80;9.30;;;;;;;5.11;nan;104201.50;5070395;28;20118;-52
2022/03/19 07:02:50;;;;;;;14.30;7.43;;;;;;;5.67;nan;104271.84;5070199;28;20024;-52
2022/03/19 07:05:23;;;;;;;13.57;8.02;;;;;;;5.74;nan;104257.34;5071677;28;20037;-49
2022/03/19 07:07:49;;;;;;;18.05;8.23;;;;;;;5.98;nan;104274.03;5067950;28;20028;-52
2022/03/19 07:10:15;;;;;;;17.27;7.95;;;;;;;5.62;nan;104204.53;5051476;28;20039;-50
2022/03/19 07:12:43;;;;;;;18.35;8.60;;;;;;;6.14;nan;104291.25;5061007;28;20060;-51
2022/03/19 07:15:13;;;;;;;16.85;7.57;;;;;;;5.76;nan;104213.84;5053477;28;20048;-49
2022/03/19 07:17:39;;;;;;;16.15;7.57;;;;;;;6.25;nan;104289.97;5074682;28;20035;-49
2022/03/19 07:20:05;;;;;;;15.38;8.20;;;;;;;6.39;nan;104288.78;5072673;28;20025;-49
2022/03/19 07:22:54;;;;;;;10.68;7.00;;;;;;;6.59;nan;104258.19;5075437;28;20137;-48
2022/03/19 07:25:22;;;;;;;15.23;7.35;;;;;;;7.20;nan;104298.91;5075424;28;20032;-50
2022/03/19 07:27:49;;;;;;;17.42;7.05;;;;;;;7.70;nan;104290.22;5075234;28;20040;-54
2022/03/19 07:30:14;;;;;;;12.07;6.90;;;;;;;8.40;nan;104317.06;5075321;28;20033;-51
2022/03/19 07:32:40;;;;;;;13.73;6.75;;;;;;;8.62;nan;104246.81;5066736;28;20052;-53
2022/03/19 07:35:07;;;;;;;11.02;5.78;;;;;;;9.43;nan;104312.22;5037410;28;20052;-54
2022/03/19 07:37:33;;;;;;;13.95;6.97;;;;;;;9.34;nan;104246.25;5072176;28;20040;-53
2022/03/19 07:39:59;;;;;;;9.93;5.70;;;;;;;9.59;nan;104277.63;5075120;28;20043;-53
2022/03/19 07:42:25;;;;;;;14.30;6.18;;;;;;;9.47;nan;104251.00;5056840;28;20056;-51
2022/03/19 07:44:50;;;;;;;14.85;5.90;;;;;;;10.28;nan;104325.00;5055479;28;20388;-50
2022/03/19 07:47:16;;;;;;;13.57;6.20;;;;;;;10.40;nan;104266.47;5075193;28;20391;-55
2022/03/19 07:49:42;;;;;;;9.63;5.93;;;;;;;10.67;nan;104261.81;5073726;28;20028;-54
2022/03/19 07:52:09;;;;;;;12.18;5.80;;;;;;;10.78;nan;104326.16;5073926;28;20112;-54
2022/03/19 07:54:36;;;;;;;10.50;5.80;;;;;;;11.29;nan;104313.19;5074910;28;20063;-51
2022/03/19 07:57:02;;;;;;;12.80;5.85;;;;;;;11.62;nan;104326.09;5055409;28;20032;-51
2022/03/19 07:59:28;;;;;;;9.50;5.22;;;;;;;11.38;nan;104254.44;5052017;28;20060;-54
2022/03/19 08:01:54;;;;;;;8.63;5.00;;;;;;;11.63;nan;104265.47;5056099;28;20075;-52
2022/03/19 08:04:19;;;;;;;10.30;4.97;;;;;;;12.78;nan;104321.88;5054960;28;20041;-56
2022/03/19 08:06:45;;;;;;;11.20;4.95;;;;;;;12.69;nan;104290.94;5074152;28;20127;-56
2022/03/19 08:09:10;;;;;;;8.80;4.43;;;;;;;12.93;nan;104316.78;5073864;28;20028;-53
2022/03/19 08:11:36;;;;;;;9.88;4.93;;;;;;;12.84;nan;104330.75;5056817;28;20025;-54
2022/03/19 08:14:03;;;;;;;11.82;4.55;;;;;;;13.09;nan;104333.78;5056831;28;20043;-53
2022/03/19 08:16:28;;;;;;;8.75;4.00;;;;;;;12.89;nan;104273.56;5074748;28;20041;-52
2022/03/19 08:18:54;;;;;;;10.65;4.30;;;;;;;13.53;nan;104338.72;5074457;28;20111;-52
2022/03/19 08:21:19;;;;;;;9.35;4.30;;;;;;;13.87;nan;104333.75;5074568;28;20483;-54
2022/03/19 08:23:46;;;;;;;11.35;4.40;;;;;;;13.77;nan;104278.94;5074162;28;20036;-51
2022/03/19 08:26:11;;;;;;;10.23;4.72;;;;;;;14.38;nan;104325.38;5056931;28;20540;-54
2022/03/19 08:28:37;;;;;;;9.68;4.50;;;;;;;14.52;nan;104339.59;5055717;28;20119;-55
2022/03/19 08:31:02;;;;;;;11.80;4.20;;;;;;;14.03;nan;104280.94;5074373;28;20081;-57
2022/03/19 08:33:27;;;;;;;12.02;4.28;;;;;;;14.44;nan;104342.22;5074289;28;20079;-55
2022/03/19 08:35:53;;;;;;;9.75;4.22;;;;;;;14.65;nan;104350.28;5074035;28;20396;-54
2022/03/19 08:41:03;;;;;;;13.55;4.88;;;;;;;14.10;nan;104330.41;5074160;28;20043;-54
2022/03/19 08:43:29;;;;;;;7.82;3.70;;;;;;;14.72;nan;104337.97;5073867;28;20037;-56
2022/03/19 08:45:54;;;;;;;8.40;3.88;;;;;;;14.85;nan;104353.06;5073861;28;20036;-54
2022/03/19 08:48:19;;;;;;;8.57;4.05;;;;;;;14.42;nan;104325.41;5074146;28;20443;-58
2022/03/19 08:50:45;;;;;;;8.05;4.18;;;;;;;14.93;nan;104348.69;5073783;28;20035;-57
2022/03/19 08:53:15;;;;;;;7.82;3.65;;;;;;;14.94;nan;104276.19;5073791;28;20490;-57
2022/03/19 08:55:41;;;;;;;7.85;3.97;;;;;;;15.43;nan;104330.31;5074096;28;20031;-55
2022/03/19 08:58:06;;;;;;;9.55;4.00;;;;;;;15.49;nan;104337.44;5073825;28;20041;-55
2022/03/19 09:00:32;;;;;;;10.23;4.18;;;;;;;15.15;nan;104337.28;5073786;28;20056;-57
2022/03/19 09:02:57;;;;;;;6.95;3.58;;;;;;;14.93;nan;104318.63;5073690;28;20033;-54
2022/03/19 09:05:23;;;;;;;7.55;3.47;;;;;;;14.92;nan;104269.97;5055509;28;20524;-57
2022/03/19 09:07:49;;;;;;;7.20;3.70;;;;;;;15.40;nan;104317.03;5073679;28;20035;-52
2022/03/19 09:10:14;;;;;;;11.50;4.05;;;;;;;15.87;nan;104327.75;5073659;28;20037;-54
2022/03/19 09:12:40;;;;;;;7.90;3.65;;;;;;;15.56;nan;104316.19;5055427;28;20040;-56
2022/03/19 09:15:10;;;;;;;9.02;3.80;;;;;;;15.85;nan;104318.88;5073170;28;20036;-55
2022/03/19 09:17:35;;;;;;;8.55;3.90;;;;;;;15.91;nan;104308.25;5073482;28;20051;-57
2022/03/19 09:20:01;;;;;;;6.72;3.80;;;;;;;16.40;nan;104318.88;5073064;28;20085;-52
2022/03/19 09:22:26;;;;;;;8.13;3.40;;;;;;;16.24;nan;104271.03;5073438;28;20032;-58
2022/03/19 09:24:51;;;;;;;12.50;3.45;;;;;;;16.33;nan;104321.53;5073116;28;20456;-55
2022/03/19 09:27:17;;;;;;;10.55;3.10;;;;;;;16.96;nan;104319.63;5073005;28;20028;-54
2022/03/19 09:29:42;;;;;;;8.43;3.13;;;;;;;16.75;nan;104283.31;5072961;28;20127;-56
2022/03/19 09:32:09;;;;;;;8.15;3.58;;;;;;;17.03;nan;104324.03;5054938;28;20033;-54
2022/03/19 09:34:35;;;;;;;8.93;3.30;;;;;;;17.37;nan;104322.97;5072667;28;20067;-58
2022/03/19 09:37:01;;;;;;;6.57;3.13;;;;;;;17.25;nan;104295.53;5072878;28;20048;-57
2022/03/19 09:39:26;;;;;;;8.52;3.05;;;;;;;17.83;nan;104314.72;5072195;28;20090;-56
2022/03/19 09:41:51;;;;;;;6.95;3.42;;;;;;;17.62;nan;104313.09;5055017;28;20029;-54
2022/03/19 09:44:17;;;;;;;9.57;3.15;;;;;;;18.06;nan;104304.75;5072870;28;20490;-55
2022/03/19 09:46:45;;;;;;;6.22;3.30;;;;;;;18.43;nan;104286.59;5072690;28;20044;-60
2022/03/19 09:49:10;;;;;;;6.75;2.40;;;;;;;18.34;nan;104300.00;5072599;28;20047;-56
2022/03/19 09:51:40;;;;;;;7.25;2.97;;;;;;;18.09;nan;104264.72;5072807;28;20327;-57
2022/03/19 09:54:05;;;;;;;5.63;3.00;;;;;;;18.13;nan;104309.09;5072846;28;20376;-56
2022/03/19 09:56:32;;;;;;;7.05;3.03;;;;;;;18.14;nan;104291.31;5054685;28;20040;-54
2022/03/19 09:58:57;;;;;;;6.05;3.10;;;;;;;18.47;nan;104288.31;5054243;28;20482;-58
2022/03/19 10:01:31;;;;;;;8.55;3.28;;;;;;;18.56;72.98;104290.94;5150886;27;20609;-55
2022/03/19 10:04:09;;;;;;;7.10;2.80;;;;;;;18.73;70.61;104280.94;5111316;28;20420;-59
2022/03/19 10:09:31;;;;;;;6.57;3.20;;;;;;;19.69;67.87;104240.38;5114957;28;20104;-55
2022/03/19 10:11:56;;;;;;;7.13;3.20;;;;;;;19.84;62.84;104280.22;5111948;28;20040;-57
2022/03/19 10:14:23;;;;;;;6.28;2.80;;;;;;;19.62;57.26;104250.28;5111746;28;20180;-55
2022/03/19 10:16:51;;;;;;;10.30;3.42;;;;;;;19.70;56.02;104268.00;5111877;28;20448;-55
2022/03/19 10:19:17;;;;;;;5.13;2.70;;;;;;;19.42;57.66;104223.00;5111459;28;20397;-54
2022/03/19 10:21:42;;;;;;;5.97;2.80;;;;;;;19.38;57.39;104199.03;5111622;28;20031;-53
2022/03/19 10:24:24;;;;;;;5.25;2.30;;;;;;;19.16;49.80;104245.66;5129977;28;20023;-55
2022/03/19 10:26:49;;;;;;;;;;;;;;;19.06;48.01;104242.22;5111655;28;20036;-58
2022/03/19 10:29:15;;;;;;;7.35;3.00;;;;;;;19.21;51.28;104169.88;5129598;28;19984;-55
2022/03/19 10:31:46;;;;;;;6.03;2.55;;;;;;;20.51;47.88;104225.50;5129813;28;20039;-56
2022/03/19 10:34:12;;;;;;;;;;;;;;;20.70;42.42;104226.84;5130404;28;20023;-54
2022/03/19 10:36:39;;;;;;;7.75;2.70;;;;;;;20.61;43.46;104168.16;5111271;28;19919;-53
2022/03/19 10:39:26;;;;;;;4.22;2.30;;;;;;;21.35;42.39;104225.41;5129193;28;20214;-50
2022/03/19 10:41:56;;;;;;;5.78;2.38;;;;;;;21.33;39.83;104223.69;5129520;28;20035;-54
2022/03/19 10:44:24;;;;;;;5.47;2.42;;;;;;;21.14;40.94;104220.53;5129685;28;20035;-55
2022/03/19 10:46:51;;;;;;;5.80;2.80;;;;;;;21.54;40.06;104215.97;5129516;28;20055;-53
2022/03/19 10:49:18;;;;;;;6.63;2.50;;;;;;;21.37;42.90;104206.59;5129325;28;20490;-53
2022/03/19 10:51:48;;;;;;;5.72;3.08;;;;;;;21.95;38.47;104195.28;5110889;28;20023;-53
2022/03/19 10:54:14;;;;;;;5.60;2.47;;;;;;;20.67;38.57;104133.22;5129364;28;20475;-55
2022/03/19 10:56:40;;;;;;;6.65;2.42;;;;;;;21.02;40.09;104189.53;5111106;28;20043;-54
2022/03/19 10:59:05;;;;;;;7.95;3.10;;;;;;;20.65;38.67;104143.09;5128888;28;20593;-58
2022/03/19 11:01:35;;;;;;;6.65;3.05;;;;;;;20.29;45.37;104184.91;5129199;28;20144;-55
2022/03/19 11:04:02;;;;;;;4.13;2.40;;;;;;;21.10;40.90;104174.19;5129180;28;20419;-54
2022/03/19 11:06:29;;;;;;;9.85;2.40;;;;;;;20.93;39.56;104173.69;5110622;28;20053;-56
2022/03/19 11:08:55;;;;;;;5.55;2.33;;;;;;;20.91;35.31;104177.31;5110670;28;20028;-58
2022/03/19 11:11:40;;;;;;;6.22;2.10;;;;;;;20.67;36.75;104117.16;5105639;28;20125;-55
2022/03/19 11:14:07;;;;;;;6.13;2.17;;;;;;;21.59;31.85;104165.81;5115112;28;20092;-56
2022/03/19 11:16:36;;;;;;;3.22;1.80;;;;;;;22.03;30.71;104151.25;5115129;28;20390;-58
2022/03/19 11:19:02;;;;;;;4.22;1.73;;;;;;;21.94;30.51;104154.19;5096740;28;20115;-54
2022/03/19 11:21:30;;;;;;;3.15;1.77;;;;;;;21.42;31.09;104143.06;5097050;28;20371;-56
2022/03/19 11:24:10;;;;;;;3.17;1.65;;;;;;;21.23;31.08;104151.56;5097096;28;20059;-54
2022/03/19 11:26:36;;;;;;;3.42;2.30;;;;;;;21.35;30.08;104154.84;5096832;28;20035;-56
2022/03/19 11:29:02;;;;;;;2.78;1.77;;;;;;;21.94;28.18;104131.84;5096588;28;20038;-58
2022/03/19 11:31:29;;;;;;;3.22;1.60;;;;;;;22.15;27.21;104133.91;5096619;28;20058;-53
2022/03/19 11:33:59;;;;;;;4.55;1.50;;;;;;;21.49;26.47;104124.09;5076334;28;20630;-58
2022/03/19 11:36:24;;;;;;;2.90;1.58;;;;;;;22.08;25.46;104124.25;5093080;28;20035;-55
2022/03/19 11:38:54;;;;;;;5.80;1.70;;;;;;;22.83;26.79;104121.94;5093998;28;20101;-57
2022/03/19 11:41:22;;;;;;;3.25;1.25;;;;;;;23.34;24.65;104118.47;5093482;28;20032;-55
2022/03/19 11:43:49;;;;;;;3.05;1.10;;;;;;;22.61;23.64;104064.47;5094087;28;20115;-59
2022/03/19 11:46:14;;;;;;;6.30;2.28;;;;;;;22.79;24.73;104097.94;5094084;28;20123;-53
2022/03/19 11:48:47;;;;;;;3.92;1.20;;;;;;;22.97;24.97;104113.47;5076118;28;20067;-56
2022/03/19 11:51:24;;;;;;;4.68;1.65;;;;;;;20.58;25.42;103711.47;5075982;28;20032;-54